Data for 08/29/2016

Time Sea-Level Adjusted Pressure Absolute Pressure Temperature Relative Humidity Dew Point   
(mb) (inHg) (mb) (inHg) (C) (F) (%) (C) (F)
00:05 1026 30.3 855 25.25 19.2 66.5 35 3.6 38.5
00:10 1026 30.3 855 25.25 19.1 66.5 35 3.6 38.6
00:15 1026 30.3 855 25.25 19.1 66.3 35 3.5 38.3
00:20 1026 30.3 855 25.25 19 66.3 36 3.7 38.7
00:25 1026 30.3 855 25.25 18.9 66.1 36 3.6 38.5
00:30 1026 30.3 855 25.25 18.8 65.8 37 3.8 38.8
00:35 1026 30.3 855 25.25 18.7 65.6 37 3.8 38.9
00:40 1026 30.3 855 25.25 18.6 65.5 37 3.7 38.7
00:45 1026 30.3 855 25.25 18.5 65.4 37 3.8 38.8
00:50 1026 30.3 855 25.25 18.5 65.2 38 3.9 39
00:55 1026 30.3 855 25.25 18.5 65.2 38 3.8 38.9
01:00 1026 30.3 855 25.25 18.4 65 38 3.9 39
01:05 1026 30.3 855 25.25 18.3 64.9 38 3.9 39.1
01:10 1026 30.3 855 25.25 18.2 64.7 39 4 39.2
01:15 1026 30.3 855 25.25 18 64.5 39 4 39.1
01:20 1026 30.3 855 25.25 18 64.4 39 3.9 39.1
01:25 1026 30.3 855 25.25 18 64.3 39 4 39.2
01:30 1026 30.3 855 25.25 17.8 64 40 4.1 39.4
01:35 1026 30.3 855 25.25 17.7 63.8 40 4 39.3
01:40 1026 30.3 855 25.25 17.7 63.8 40 4.1 39.3
01:45 1026 30.3 855 25.25 17.7 63.8 40 4.1 39.3
01:50 1026 30.3 855 25.25 17.6 63.8 40 4.1 39.3
01:55 1026 30.3 855 25.25 17.7 63.8 40 4.2 39.5
02:00 1026 30.3 855 25.25 17.7 63.8 41 4.3 39.7
02:05 1026 30.3 855 25.25 17.6 63.7 41 4.3 39.7
02:10 1026 30.3 855 25.25 17.5 63.6 41 4.3 39.8
02:15 1026 30.3 855 25.25 17.5 63.4 41 4.3 39.7
02:20 1026 30.3 855 25.25 17.4 63.4 42 4.4 39.9
02:25 1026 30.3 855 25.25 17.4 63.3 42 4.4 40
02:30 1026 30.3 855 25.25 17.3 63.1 42 4.5 40.1
02:35 1026 30.3 855 25.25 17.2 62.9 43 4.6 40.3
02:40 1026 30.3 855 25.25 17.1 62.8 43 4.6 40.3
02:45 1026 30.3 855 25.25 17.2 62.9 43 4.6 40.3
02:50 1026 30.3 855 25.25 17.1 62.8 43 4.5 40.2
02:55 1026 30.3 855 25.25 17 62.6 44 4.6 40.4
03:00 1026 30.3 855 25.25 17 62.5 44 4.6 40.3
03:05 1026 30.3 855 25.25 16.8 62.2 44 4.7 40.5
03:10 1026 30.3 855 25.25 16.7 62 45 4.7 40.5
03:15 1026 30.3 855 25.25 16.6 61.9 45 4.7 40.5
03:20 1026 30.3 855 25.25 16.5 61.8 46 4.9 40.8
03:25 1026 30.3 855 25.25 16.4 61.5 46 4.8 40.7
03:30 1026 30.3 855 25.25 16.4 61.5 46 4.8 40.7
03:35 1026 30.3 855 25.25 16.5 61.6 46 4.9 40.8
03:40 1026 30.3 856 25.28 16.4 61.5 46 4.9 40.9
03:45 1026 30.3 856 25.28 16.4 61.5 46 4.9 40.9
03:50 1026 30.3 856 25.28 16.3 61.3 47 5 41
03:55 1026 30.3 855 25.25 16.2 61.2 47 5 40.9
04:00 1026 30.3 855 25.25 16.1 60.9 47 5 40.9
04:05 1026 30.3 855 25.25 16 60.8 48 5 41.1
04:10 1026 30.3 855 25.25 15.8 60.5 48 5 41
04:15 1026 30.3 855 25.25 15.8 60.4 48 5 41
04:20 1026 30.3 855 25.25 15.7 60.3 49 5 41
04:25 1026 30.3 855 25.25 15.7 60.2 49 5.1 41.1
04:30 1026 30.3 856 25.28 15.7 60.2 49 5 41
04:35 1026 30.3 856 25.28 15.7 60.3 48 4.9 40.9
04:40 1026 30.3 856 25.28 15.8 60.4 48 5 40.9
04:45 1026 30.3 856 25.28 15.8 60.4 48 4.9 40.9
04:50 1026 30.3 856 25.28 15.8 60.4 48 4.9 40.8
04:55 1026 30.3 856 25.28 15.8 60.5 48 4.9 40.8
05:00 1026 30.3 856 25.28 15.7 60.3 48 4.9 40.8
05:05 1026 30.3 856 25.28 15.7 60.3 48 4.9 40.8
05:10 1026 30.3 856 25.28 15.7 60.2 48 4.9 40.8
05:15 1026 30.3 856 25.28 15.6 60.1 48 4.9 40.8
05:20 1026 30.3 856 25.28 15.6 60.1 48 4.9 40.8
05:25 1026 30.3 856 25.28 15.6 60 49 4.9 40.8
05:30 1027 30.33 856 25.28 15.5 60 49 4.9 40.8
05:35 1027 30.33 856 25.28 15.5 59.8 49 5 40.9
05:40 1027 30.33 856 25.28 15.3 59.6 50 5 40.9
05:45 1027 30.33 856 25.28 15.3 59.5 50 4.9 40.8
05:50 1027 30.33 856 25.28 15.2 59.4 50 5 40.9
05:55 1027 30.33 856 25.28 15.2 59.4 50 5 41
06:00 1027 30.33 856 25.28 15.2 59.3 50 4.9 40.9
06:05 1027 30.33 856 25.28 15.1 59.2 50 4.9 40.9
06:10 1027 30.33 856 25.28 15.1 59.2 50 5 41
06:15 1027 30.33 856 25.28 15 58.9 51 4.9 40.8
06:20 1027 30.33 856 25.28 15.2 59.3 50 4.9 40.9
06:25 1027 30.33 856 25.28 15.4 59.8 49 4.9 40.9
06:30 1027 30.33 856 25.28 15.7 60.3 49 5 41
06:35 1027 30.33 856 25.28 15.8 60.5 48 5 41
06:40 1027 30.33 856 25.28 15.7 60.3 49 5 41
06:45 1027 30.33 856 25.28 15.8 60.4 49 5 41.1
06:50 1027 30.33 856 25.28 16 60.8 48 5 41
06:55 1027 30.33 856 25.28 16.1 60.9 49 5.4 41.7
07:00 1027 30.33 856 25.28 16 60.7 48 5 41
07:05 1027 30.33 856 25.28 16 60.8 48 5.2 41.4
07:10 1027 30.33 856 25.28 16.3 61.3 48 5.3 41.5
07:15 1027 30.33 856 25.28 16.3 61.4 48 5.3 41.6
07:20 1027 30.33 856 25.28 16.8 62.2 46 5.1 41.2
07:25 1027 30.33 856 25.28 17.2 62.9 45 5.1 41.3
07:30 1027 30.33 856 25.28 17.6 63.7 43 5 40.9
07:35 1027 30.33 856 25.28 17.9 64.2 43 5.2 41.4
07:40 1027 30.33 856 25.28 18.2 64.8 43 5.4 41.7
07:45 1027 30.33 856 25.28 18 64.4 43 5.2 41.4
07:50 1027 30.33 856 25.28 18.3 64.9 41 5 41
07:55 1027 30.33 856 25.28 18.5 65.3 41 5 41
08:00 1027 30.33 856 25.28 18.8 65.8 40 5.1 41.2
08:05 1027 30.33 856 25.28 19.1 66.3 38 4.7 40.5
08:10 1027 30.33 856 25.28 19.1 66.4 38 4.7 40.5
08:15 1027 30.33 856 25.28 19.5 67.1 37 4.6 40.3
08:20 1027 30.33 856 25.28 19.8 67.7 38 5.1 41.3
08:25 1027 30.33 856 25.28 19.6 67.3 38 5 41
08:30 1027 30.33 856 25.28 19.6 67.2 38 5.1 41.2
08:35 1027 30.33 856 25.28 19.8 67.6 34 3.6 38.6
08:40 1027 30.33 856 25.28 19.5 67.1 37 4.5 40.1
08:45 1027 30.33 856 25.28 19.3 66.7 35 3.7 38.7
08:50 1027 30.33 856 25.28 18.9 66 36 3.8 38.9
08:55 1027 30.33 856 25.28 19.6 67.2 36 4.3 39.7
09:00 1027 30.33 856 25.28 20.3 68.5 34 3.9 39
09:05 1027 30.33 856 25.28 20.6 69.2 34 4.2 39.6
09:10 1027 30.33 856 25.28 20.8 69.5 33 4 39.1
09:15 1027 30.33 856 25.28 21.2 70.2 32 4.2 39.5
09:20 1027 30.33 856 25.28 21 69.7 34 4.5 40.2
09:25 1027 30.33 856 25.28 21 69.7 34 4.8 40.6
09:30 1027 30.33 856 25.28 21.1 69.9 32 3.7 38.7
09:35 1027 30.33 856 25.28 21.6 70.9 32 4.2 39.6
09:40 1027 30.33 856 25.28 21.9 71.4 31 4.1 39.5
09:45 1027 30.33 856 25.28 21.3 70.3 34 4.9 40.8
09:50 1027 30.33 856 25.28 21.3 70.4 32 4.1 39.4
09:55 1027 30.33 856 25.28 22.6 72.7 30 4.4 39.8
10:00 1027 30.33 856 25.28 22.6 72.6 31 4.8 40.6
10:05 1027 30.33 856 25.28 21.8 71.2 31 4.2 39.5
10:10 1027 30.33 856 25.28 22.2 72 31 4.4 39.9
10:15 1027 30.33 856 25.28 22.8 73.1 30 4.5 40
10:20 1027 30.33 856 25.28 22.9 73.2 29 4.2 39.5
10:25 1026 30.3 856 25.28 23.3 73.9 29 4.3 39.7
10:30 1026 30.3 856 25.28 23.8 74.8 28 4.5 40.1
10:35 1026 30.3 855 25.25 24.3 75.8 27 4.5 40.1
10:40 1026 30.3 855 25.25 24.5 76 28 5.2 41.4
10:45 1026 30.3 855 25.25 24.3 75.7 28 5.1 41.1
10:50 1026 30.3 855 25.25 24.6 76.2 27 4.5 40.2
10:55 1026 30.3 855 25.25 24.6 76.3 27 4.9 40.7
11:00 1026 30.3 855 25.25 24.4 75.8 28 4.7 40.5
11:05 1026 30.3 855 25.25 23.8 74.9 28 4.7 40.4
11:10 1026 30.3 855 25.25 24.1 75.4 28 4.6 40.3
11:15 1026 30.3 855 25.25 24.7 76.4 26 4.4 39.9
11:20 1026 30.3 855 25.25 24.2 75.6 28 4.7 40.4
11:25 1026 30.3 855 25.25 24.4 75.9 27 4.5 40
11:30 1025 30.27 855 25.25 24.7 76.5 26 4.1 39.4
11:35 1025 30.27 855 25.25 24.8 76.6 26 4.3 39.7
11:40 1025 30.27 854 25.22 25.7 78.3 24 4.1 39.5
11:45 1025 30.27 854 25.22 25.6 78 24 3.8 38.9
11:50 1025 30.27 854 25.22 26.3 79.3 24 4.3 39.7
11:55 1025 30.27 854 25.22 25.9 78.5 25 4.4 39.9
12:00 1025 30.27 854 25.22 26.9 80.3 22 3.8 38.8
12:05 1025 30.27 854 25.22 26.9 80.4 23 4.5 40.1
12:10 1025 30.27 854 25.22 27 80.6 22 3.7 38.7
12:15 1025 30.27 854 25.22 26.3 79.3 22 3.4 38.2
12:20 1025 30.27 854 25.22 25.9 78.6 24 4 39.1
12:25 1025 30.27 854 25.22 26.4 79.6 22 3.3 37.9
12:30 1025 30.27 854 25.22 26.9 80.3 22 3.4 38.2
12:35 1025 30.27 854 25.22 26.9 80.4 21 3.3 37.9
12:40 1025 30.27 854 25.22 27.4 81.3 21 3.5 38.4
12:45 1025 30.27 854 25.22 28.3 82.9 20 3.2 37.7
12:50 1025 30.27 854 25.22 28.1 82.6 21 4.1 39.4
12:55 1024 30.24 854 25.22 28.5 83.4 21 4.1 39.4
13:00 1024 30.24 854 25.22 29.3 84.8 19 3.8 38.9
13:05 1024 30.24 854 25.22 29.1 84.4 20 4 39.1
13:10 1024 30.24 854 25.22 28.9 83.9 20 3.9 39
13:15 1024 30.24 854 25.22 27.8 82.1 17 0.7 33.3
13:20 1024 30.24 853 25.19 27.4 81.3 17 0.6 33
13:25 1024 30.24 853 25.19 27.1 80.7 18 0.9 33.7
13:30 1024 30.24 853 25.19 27 80.6 18 1.2 34.2
13:35 1024 30.24 853 25.19 27.3 81.2 18 1.4 34.6
13:40 1024 30.24 853 25.19 27.5 81.5 19 2 35.7
13:45 1024 30.24 853 25.19 27.6 81.7 19 2.1 35.8
13:50 1024 30.24 853 25.19 27.9 82.1 19 2.1 35.8
13:55 1024 30.24 853 25.19 27.5 81.5 20 2.8 37
14:00 1024 30.24 853 25.19 27.5 81.5 19 2.5 36.4
14:05 1024 30.24 853 25.19 27.2 80.9 20 2.4 36.3
14:10 1024 30.24 853 25.19 27.2 81 20 2.6 36.7
14:15 1024 30.24 853 25.19 27 80.6 21 3.1 37.5
14:20 1024 30.24 853 25.19 26.8 80.2 20 2.5 36.4
14:25 1024 30.24 853 25.19 26.8 80.3 20 2.2 36
14:30 1023 30.21 853 25.19 27.2 80.9 20 2.4 36.3
14:35 1023 30.21 853 25.19 27.5 81.6 19 2.1 35.8
14:40 1023 30.21 853 25.19 27.6 81.6 19 2 35.7
14:45 1023 30.21 852 25.16 27.9 82.2 18 1.8 35.2
14:50 1023 30.21 852 25.16 27.7 81.8 18 1.6 34.9
14:55 1023 30.21 852 25.16 27.6 81.8 19 1.9 35.4
15:00 1023 30.21 852 25.16 27.7 81.9 18 1.9 35.4
15:05 1023 30.21 852 25.16 27.9 82.3 17 1.3 34.4
15:10 1023 30.21 852 25.16 28.2 82.8 18 2 35.5
15:15 1023 30.21 852 25.16 28.1 82.7 18 2.1 35.8
15:20 1023 30.21 852 25.16 28 82.4 18 2.1 35.8
15:25 1023 30.21 852 25.16 27.5 81.5 18 1.7 35.1
15:30 1023 30.21 852 25.16 27.8 82 19 2.1 35.8
15:35 1023 30.21 852 25.16 27.9 82.2 18 2 35.6
15:40 1023 30.21 852 25.16 28 82.4 18 1.9 35.5
15:45 1023 30.21 852 25.16 28.1 82.5 19 2.3 36.2
15:50 1023 30.21 852 25.16 28.2 82.8 19 2.4 36.4
15:55 1023 30.21 852 25.16 28.1 82.6 19 2.3 36.2
16:00 1023 30.21 852 25.16 28.1 82.6 19 2.6 36.7
16:05 1023 30.21 852 25.16 27.9 82.3 20 2.9 37.2
16:10 1023 30.21 852 25.16 28 82.5 20 3.6 38.4
16:15 1023 30.21 852 25.16 27.9 82.3 20 3.4 38.1
16:20 1023 30.21 852 25.16 27.6 81.7 21 3.8 38.9
16:25 1023 30.21 852 25.16 27.3 81.2 22 3.8 38.8
16:30 1023 30.21 852 25.16 27.2 81 21 3.5 38.2
16:35 1023 30.21 852 25.16 27.2 81 22 3.8 38.9
16:40 1022 30.18 852 25.16 27.2 80.9 21 3.6 38.4
16:45 1022 30.18 852 25.16 27.1 80.7 22 3.8 38.9
16:50 1022 30.18 852 25.16 27.1 80.8 22 3.5 38.4
16:55 1022 30.18 852 25.16 27 80.5 22 3.9 39
17:00 1022 30.18 852 25.16 26.8 80.2 23 4.2 39.6
17:05 1022 30.18 852 25.16 26.7 80.1 23 4.4 39.9
17:10 1022 30.18 852 25.16 26.7 80.1 24 4.6 40.3
17:15 1022 30.18 852 25.16 26.6 80 24 4.8 40.6
17:20 1022 30.18 852 25.16 26.6 79.9 24 4.8 40.7
17:25 1022 30.18 852 25.16 26.5 79.7 24 4.8 40.7
17:30 1022 30.18 852 25.16 26.4 79.5 24 4.5 40.1
17:35 1022 30.18 852 25.16 26.3 79.4 24 4.4 40
17:40 1022 30.18 851 25.13 26.2 79.1 24 4.3 39.8
17:45 1022 30.18 852 25.16 26 78.8 24 4.2 39.5
17:50 1022 30.18 851 25.13 25.8 78.4 25 4.7 40.5
17:55 1022 30.18 852 25.16 25.6 78.1 25 4.7 40.4
18:00 1022 30.18 852 25.16 25.5 77.8 25 4.4 39.9
18:05 1022 30.18 852 25.16 25.3 77.6 25 4.3 39.7
18:10 1022 30.18 852 25.16 25.2 77.4 25 4 39.3
18:15 1022 30.18 852 25.16 25.1 77.2 25 4.1 39.4
18:20 1022 30.18 852 25.16 25 76.9 26 4.3 39.8
18:25 1022 30.18 852 25.16 24.9 76.8 26 4.5 40.1
18:30 1022 30.18 852 25.16 24.8 76.7 27 4.7 40.5
18:35 1023 30.21 852 25.16 24.7 76.4 27 4.8 40.7
18:40 1023 30.21 852 25.16 24.5 76.1 28 5.1 41.2
18:45 1023 30.21 852 25.16 24.3 75.7 29 5.2 41.3
18:50 1023 30.21 852 25.16 24.2 75.6 29 5.4 41.7
18:55 1023 30.21 852 25.16 24 75.2 30 5.4 41.7
19:00 1023 30.21 852 25.16 23.9 75 30 5.4 41.7
19:05 1023 30.21 852 25.16 23.7 74.7 30 5.3 41.6
19:10 1023 30.21 852 25.16 23.8 74.8 30 5.4 41.6
19:15 1023 30.21 852 25.16 23.6 74.6 31 5.5 41.9
19:20 1023 30.21 852 25.16 23.6 74.4 31 5.4 41.8
19:25 1023 30.21 852 25.16 23.5 74.2 30 5.3 41.6
19:30 1023 30.21 852 25.16 23.4 74 31 5.4 41.7
19:35 1023 30.21 852 25.16 23.2 73.7 31 5.4 41.7
19:40 1023 30.21 852 25.16 23.1 73.7 31 5.3 41.6
19:45 1023 30.21 852 25.16 23 73.4 32 5.4 41.8
19:50 1023 30.21 852 25.16 23 73.3 32 5.4 41.7
19:55 1023 30.21 852 25.16 22.9 73.1 32 5.4 41.7
20:00 1023 30.21 852 25.16 22.8 73 32 5.4 41.7
20:05 1023 30.21 852 25.16 22.7 72.9 32 5.4 41.7
20:10 1023 30.21 852 25.16 22.7 72.8 32 5.3 41.6
20:15 1023 30.21 852 25.16 22.7 72.8 32 5.5 42
20:20 1023 30.21 852 25.16 22.4 72.3 33 5.4 41.7
20:25 1023 30.21 852 25.16 22.4 72.3 32 5.2 41.4
20:30 1023 30.21 852 25.16 22.6 72.6 32 5.3 41.6
20:35 1023 30.21 852 25.16 22.6 72.6 32 5.3 41.5
20:40 1023 30.21 852 25.16 22.6 72.7 32 5.3 41.5
20:45 1023 30.21 852 25.16 22.5 72.6 32 5.4 41.8
20:50 1023 30.21 852 25.16 22.4 72.3 32 5.3 41.5
20:55 1023 30.21 852 25.16 22.5 72.5 32 5.4 41.7
21:00 1023 30.21 852 25.16 22.4 72.4 33 5.5 41.9
21:05 1023 30.21 852 25.16 22.3 72.1 33 5.4 41.8
21:10 1023 30.21 852 25.16 22.2 72 33 5.5 41.9
21:15 1023 30.21 852 25.16 22.2 71.9 33 5.4 41.7
21:20 1023 30.21 852 25.16 22.1 71.8 34 5.6 42.1
21:25 1023 30.21 852 25.16 22 71.6 34 5.6 42.1
21:30 1023 30.21 852 25.16 22 71.6 34 5.6 42.1
21:35 1023 30.21 852 25.16 21.9 71.5 35 5.8 42.4
21:40 1023 30.21 852 25.16 21.8 71.2 35 5.8 42.4
21:45 1023 30.21 852 25.16 21.7 71.1 35 5.9 42.6
21:50 1023 30.21 852 25.16 21.7 71 36 6 42.8
21:55 1023 30.21 852 25.16 21.7 71 36 6.1 42.9
22:00 1023 30.21 852 25.16 21.7 71 36 6 42.8
22:05 1023 30.21 852 25.16 21.8 71.2 36 6.1 43
22:10 1023 30.21 852 25.16 21.6 71 36 6.1 43
22:15 1023 30.21 852 25.16 21.6 70.8 36 6.1 43.1
22:20 1023 30.21 852 25.16 21.6 70.8 36 6.1 43
22:25 1023 30.21 852 25.16 21.5 70.6 37 6.3 43.3
22:30 1023 30.21 852 25.16 21.4 70.5 36 6 42.9
22:35 1023 30.21 852 25.16 21.5 70.7 36 6.2 43.1
22:40 1023 30.21 852 25.16 21.4 70.6 36 6 42.8
22:45 1023 30.21 852 25.16 21.6 70.8 36 5.9 42.6
22:50 1023 30.21 852 25.16 21.6 70.8 36 6 42.7
22:55 1023 30.21 852 25.16 21.5 70.6 36 5.9 42.7
23:00 1023 30.21 852 25.16 21.5 70.6 36 5.9 42.6
23:05 1023 30.21 852 25.16 21.4 70.4 36 5.9 42.7
23:10 1023 30.21 852 25.16 21.3 70.3 37 6 42.8
23:15 1023 30.21 852 25.16 21.2 70.1 36 5.9 42.6
23:20 1023 30.21 852 25.16 21.2 70.1 36 5.8 42.4
23:25 1023 30.21 852 25.16 21.2 70.2 36 5.9 42.6
23:30 1023 30.21 852 25.16 21.2 70.2 36 5.7 42.3
23:35 1023 30.21 852 25.16 21.1 70.1 36 5.8 42.5
23:40 1023 30.21 852 25.16 21.2 70.1 36 5.8 42.4
23:45 1023 30.21 852 25.16 21.1 70 36 5.8 42.4
23:50 1023 30.21 852 25.16 21 69.8 36 5.7 42.2
23:55 1023 30.21 852 25.16 21 69.7 37 5.8 42.5
24:00 1023 30.21 852 25.16 20.9 69.7 37 5.7 42.2